GRZ512 Details

Departure: Denver International Airport (KDEN)
Arrival: Sacramento International Airport (KSMF)
Route: FOOOT4 RLG EKR J173 TCH J154 BAM ANAHO SLMMR3


Current Weather Information
KDEN 231153Z 04015KT 10SM SCT110 SCT220 02/M01 A3003 RMK AO2 PK WND 05034/1119 SLP142 T00171006 10122 20017 53026
KSMF 231153Z 00000KT 10SM CLR 14/08 A3001 RMK AO2 SLP160 T01390083 10189 20122 58007